Time;durP1;ratioP1;P1;durP2;ratioP2;P2;SDS_P1;SDS_P2;PMS_P1;PMS_P2;Temp;Humidity;BMP_temperature;BMP_pressure;BME280_temperature;BME280_humidity;BME280_pressure;Samples;Min_cycle;Max_cycle;Signal;HPM_P1;HPM_P2
2024/02/12 00:02:24;;;;;;;;;;;8.90;88.60;;;;;;4963192;28;19957;-60
2024/02/12 00:04:59;;;;;;;;;;;8.80;88.70;;;;;;4966691;28;19937;-61
2024/02/12 00:07:26;;;;;;;;;;;8.80;88.60;;;;;;4963736;28;19930;-62
2024/02/12 00:10:05;;;;;;;;;;;8.90;88.60;;;;;;4962717;28;19937;-62
2024/02/12 00:12:38;;;;;;;;;;;8.80;88.70;;;;;;4965248;28;19930;-60
2024/02/12 00:15:12;;;;;;;;;;;8.80;88.70;;;;;;4968682;28;19927;-60
2024/02/12 00:17:47;;;;;;;;;;;8.80;88.70;;;;;;4965085;28;19961;-61
2024/02/12 00:20:21;;;;;;;;;;;8.90;88.70;;;;;;4965421;28;20390;-61
2024/02/12 00:22:54;;;;;;;;;;;8.80;88.70;;;;;;4960871;28;19926;-61
2024/02/12 00:25:27;;;;;;;;;;;8.90;88.70;;;;;;4966872;28;20290;-59
2024/02/12 00:28:00;;;;;;;;;;;8.80;88.80;;;;;;4965900;28;19993;-61
2024/02/12 00:30:33;;;;;;;;;;;8.80;88.80;;;;;;4966676;28;19969;-61
2024/02/12 00:33:03;;;;;;;;;;;8.90;88.80;;;;;;4969203;28;19934;-60
2024/02/12 00:35:38;;;;;;;;;;;8.90;88.80;;;;;;4968510;28;19934;-61
2024/02/12 00:38:12;;;;;;;;;;;8.80;88.90;;;;;;4969125;28;19985;-62
2024/02/12 00:40:46;;;;;;;;;;;8.80;88.90;;;;;;4968933;28;19926;-62
2024/02/12 00:43:19;;;;;;;;;;;8.80;88.90;;;;;;4966377;28;20463;-61
2024/02/12 00:45:52;;;;;;;;;;;8.80;88.90;;;;;;4960851;28;20416;-58
2024/02/12 00:48:26;;;;;;;;;;;8.80;88.90;;;;;;4967672;28;19927;-60
2024/02/12 00:51:01;;;;;;;;;;;8.80;88.90;;;;;;4965581;28;19942;-59
2024/02/12 00:53:34;;;;;;;;;;;8.80;88.90;;;;;;4968152;28;19945;-59
2024/02/12 00:56:08;;;;;;;;;;;8.80;88.90;;;;;;4967710;28;19936;-60
2024/02/12 00:58:42;;;;;;;;;;;8.80;88.80;;;;;;4967090;28;19926;-60
2024/02/12 01:01:16;;;;;;;;;;;8.70;88.80;;;;;;4964265;28;20486;-58
2024/02/12 01:03:50;;;;;;;;;;;8.70;88.80;;;;;;4968416;28;20013;-60
2024/02/12 01:06:24;;;;;;;;;;;8.70;88.90;;;;;;4971363;28;20033;-59
2024/02/12 01:08:58;;;;;;;;;;;8.70;88.90;;;;;;4975704;28;19930;-59
2024/02/12 01:11:31;;;;;;;;;;;8.80;88.80;;;;;;4975132;28;19927;-60
2024/02/12 01:14:05;;;;;;;;;;;8.70;88.90;;;;;;4974091;28;19934;-59
2024/02/12 01:16:38;;;;;;;;;;;8.70;88.90;;;;;;4973201;28;19930;-61
2024/02/12 01:19:12;;;;;;;;;;;8.80;88.90;;;;;;4970550;28;20004;-59
2024/02/12 01:21:46;;;;;;;;;;;8.70;88.90;;;;;;4970432;28;19969;-59
2024/02/12 01:24:19;;;;;;;;;;;8.70;89.00;;;;;;4971885;28;19933;-60
2024/02/12 01:26:52;;;;;;;;;;;8.70;89.00;;;;;;4973244;28;20022;-58
2024/02/12 01:29:18;;;;;;;;;;;8.70;89.10;;;;;;4970571;28;20369;-58
2024/02/12 01:31:52;;;;;;;;;;;8.60;89.20;;;;;;4971469;28;20441;-58
2024/02/12 01:34:27;;;;;;;;;;;8.60;89.20;;;;;;4972048;28;19934;-59
2024/02/12 01:37:00;;;;;;;;;;;8.70;89.30;;;;;;4967654;28;19933;-59
2024/02/12 01:39:33;;;;;;;;;;;8.60;89.40;;;;;;4984873;28;20009;-59
2024/02/12 01:42:12;;;;;;;;;;;8.70;89.60;;;;;;4972973;28;19926;-59
2024/02/12 01:44:48;;;;;;;;;;;8.70;89.60;;;;;;4969675;28;19965;-59
2024/02/12 01:47:22;;;;;;;;;;;8.60;89.70;;;;;;4968298;28;20014;-58
2024/02/12 01:49:57;;;;;;;;;;;8.70;89.70;;;;;;4970365;28;20001;-59
2024/02/12 01:52:32;;;;;;;;;;;8.70;89.80;;;;;;4970891;28;20387;-61
2024/02/12 01:55:06;;;;;;;;;;;8.60;89.80;;;;;;4970566;28;20028;-62
2024/02/12 01:57:34;;;;;;;;;;;8.60;89.80;;;;;;4970752;28;19926;-61
2024/02/12 02:00:10;;;;;;;;;;;8.60;89.90;;;;;;4969510;28;20000;-61
2024/02/12 02:02:56;;;;;;;;;;;8.70;89.90;;;;;;4967762;28;20014;-60
2024/02/12 02:05:30;;;;;;;;;;;8.70;89.90;;;;;;4968945;28;19961;-61
2024/02/12 02:08:03;;;;;;;;;;;8.70;89.90;;;;;;4972343;28;19949;-60
2024/02/12 02:10:37;;;;;;;;;;;8.70;89.90;;;;;;4971965;28;19926;-61
2024/02/12 02:13:06;;;;;;;;;;;8.70;89.90;;;;;;4970153;28;19933;-60
2024/02/12 02:15:39;;;;;;;;;;;8.70;89.90;;;;;;4968884;28;19937;-60
2024/02/12 02:18:14;;;;;;;;;;;8.60;90.10;;;;;;4966286;28;19930;-61
2024/02/12 02:20:48;;;;;;;;;;;8.70;90.00;;;;;;4971093;28;19976;-61
2024/02/12 02:23:22;;;;;;;;;;;8.70;90.00;;;;;;4970714;28;20021;-62
2024/02/12 02:25:56;;;;;;;;;;;8.70;90.10;;;;;;4971355;28;19926;-61
2024/02/12 02:28:30;;;;;;;;;;;8.70;90.20;;;;;;4970182;28;19930;-61
2024/02/12 02:31:04;;;;;;;;;;;8.70;90.10;;;;;;4969577;28;19936;-62
2024/02/12 02:33:37;;;;;;;;;;;8.70;90.00;;;;;;4967191;28;19933;-62
2024/02/12 02:36:09;;;;;;;;;;;8.70;90.10;;;;;;4971487;28;20009;-63
2024/02/12 02:38:42;;;;;;;;;;;8.70;90.10;;;;;;4970211;28;19976;-62
2024/02/12 02:41:17;;;;;;;;;;;8.70;90.20;;;;;;4963940;28;19937;-61
2024/02/12 02:43:52;;;;;;;;;;;8.60;90.20;;;;;;4970794;28;19930;-61
2024/02/12 02:46:27;;;;;;;;;;;8.60;90.20;;;;;;4968302;28;19926;-61
2024/02/12 02:49:00;;;;;;;;;;;8.60;90.20;;;;;;4969331;28;19934;-62
2024/02/12 02:51:27;;;;;;;;;;;8.60;90.30;;;;;;4969038;28;19941;-62
2024/02/12 02:54:01;;;;;;;;;;;8.60;90.30;;;;;;4969839;28;19941;-62
2024/02/12 02:56:42;;;;;;;;;;;8.60;90.30;;;;;;4967842;28;19944;-60
2024/02/12 02:59:16;;;;;;;;;;;8.60;90.40;;;;;;4967639;28;20343;-60
2024/02/12 03:01:55;;;;;;;;;;;8.60;90.40;;;;;;4967931;28;19974;-61
2024/02/12 03:04:29;;;;;;;;;;;8.60;90.40;;;;;;4969272;28;19941;-60
2024/02/12 03:07:02;;;;;;;;;;;8.60;90.60;;;;;;4968793;28;19930;-59
2024/02/12 03:09:35;;;;;;;;;;;8.50;90.70;;;;;;4970208;28;20013;-60
2024/02/12 03:12:10;;;;;;;;;;;8.60;90.60;;;;;;4970246;28;19953;-61
2024/02/12 03:14:44;;;;;;;;;;;8.60;90.60;;;;;;4964351;28;20001;-60
2024/02/12 03:17:17;;;;;;;;;;;8.60;90.70;;;;;;4964987;28;19931;-59
2024/02/12 03:19:50;;;;;;;;;;;8.50;90.70;;;;;;4969142;28;20021;-60
2024/02/12 03:22:23;;;;;;;;;;;8.60;90.80;;;;;;4968481;28;19926;-59
2024/02/12 03:25:00;;;;;;;;;;;8.50;90.70;;;;;;4968753;28;19926;-60
2024/02/12 03:27:34;;;;;;;;;;;8.50;90.80;;;;;;4971067;28;20381;-60
2024/02/12 03:30:09;;;;;;;;;;;8.50;90.80;;;;;;4966663;28;19934;-61
2024/02/12 03:32:43;;;;;;;;;;;8.50;90.80;;;;;;4966896;28;19930;-59
2024/02/12 03:35:16;;;;;;;;;;;8.50;90.90;;;;;;4962212;28;19934;-60
2024/02/12 03:37:49;;;;;;;;;;;8.50;90.90;;;;;;4969819;28;19932;-60
2024/02/12 03:40:26;;;;;;;;;;;8.40;90.90;;;;;;4968777;28;19937;-59
2024/02/12 03:43:04;;;;;;;;;;;8.50;90.90;;;;;;4965914;28;20021;-60
2024/02/12 03:46:05;;;;;;;;;;;8.50;90.90;;;;;;4963392;28;19933;-59
2024/02/12 04:00:31;;;;;;;;;;;8.50;90.90;;;;;;4959159;28;19937;-59
2024/02/12 04:03:05;;;;;;;;;;;8.40;91.00;;;;;;4968143;28;19926;-60
2024/02/12 04:05:38;;;;;;;;;;;8.40;91.00;;;;;;4969675;28;19973;-59
2024/02/12 04:08:11;;;;;;;;;;;8.50;91.00;;;;;;4971307;28;20001;-59
2024/02/12 04:10:44;;;;;;;;;;;8.50;91.00;;;;;;4967290;28;19993;-60
2024/02/12 04:13:19;;;;;;;;;;;8.40;91.10;;;;;;4967546;28;19989;-62
2024/02/12 04:15:54;;;;;;;;;;;8.40;91.10;;;;;;4965015;28;19954;-61
2024/02/12 04:18:30;;;;;;;;;;;8.40;91.10;;;;;;4967917;28;19930;-60
2024/02/12 04:21:08;;;;;;;;;;;8.40;91.10;;;;;;4968919;28;19934;-60
2024/02/12 04:23:42;;;;;;;;;;;8.40;91.20;;;;;;4965366;28;19941;-60
2024/02/12 04:26:15;;;;;;;;;;;8.50;91.10;;;;;;4968521;28;19937;-61
2024/02/12 04:28:49;;;;;;;;;;;8.50;91.10;;;;;;4969052;28;19930;-61
2024/02/12 04:31:26;;;;;;;;;;;8.40;91.10;;;;;;4964881;28;19936;-61
2024/02/12 04:34:00;;;;;;;;;;;8.50;91.20;;;;;;4969010;28;19930;-60
2024/02/12 04:36:38;;;;;;;;;;;8.40;91.20;;;;;;4962890;28;20026;-60
2024/02/12 04:39:14;;;;;;;;;;;8.40;91.10;;;;;;4965833;28;19985;-61
2024/02/12 04:41:51;;;;;;;;;;;8.50;91.20;;;;;;4965904;28;19934;-61
2024/02/12 04:44:24;;;;;;;;;;;8.50;91.20;;;;;;4967243;28;19966;-60
2024/02/12 04:46:59;;;;;;;;;;;8.40;91.20;;;;;;4961890;28;20004;-61
2024/02/12 04:49:32;;;;;;;;;;;8.40;91.30;;;;;;4967227;28;19933;-60
2024/02/12 04:52:07;;;;;;;;;;;8.40;91.30;;;;;;4968282;28;20358;-62
2024/02/12 04:54:41;;;;;;;;;;;8.50;91.30;;;;;;4965013;28;19937;-61
2024/02/12 04:57:15;;;;;;;;;;;8.50;91.20;;;;;;4965407;28;20023;-61
2024/02/12 04:59:48;;;;;;;;;;;8.50;91.20;;;;;;4966349;28;19930;-61
2024/02/12 05:02:16;;;;;;;;;;;8.50;91.20;;;;;;4979571;28;20017;-62
2024/02/12 05:04:50;;;;;;;;;;;8.50;91.30;;;;;;4967122;28;19937;-61
2024/02/12 05:07:26;;;;;;;;;;;8.50;91.20;;;;;;4968988;28;21848;-60
2024/02/12 05:09:59;;;;;;;;;;;8.50;91.20;;;;;;4966171;28;19934;-61
2024/02/12 05:12:32;;;;;;;;;;;8.50;91.20;;;;;;4970086;28;19926;-61
2024/02/12 05:15:06;;;;;;;;;;;8.50;91.20;;;;;;4967645;28;20000;-62
2024/02/12 05:17:55;;;;;;;;;;;8.50;91.10;;;;;;4968239;28;22256;-61
2024/02/12 05:23:19;;;;;;;;;;;8.50;91.20;;;;;;4966704;28;19934;-59
2024/02/12 05:25:56;;;;;;;;;;;8.50;91.20;;;;;;4965730;28;20389;-60
2024/02/12 05:28:30;;;;;;;;;;;8.50;91.30;;;;;;4962471;28;19929;-58
2024/02/12 05:31:03;;;;;;;;;;;8.50;91.30;;;;;;4965073;28;20000;-58
2024/02/12 05:33:38;;;;;;;;;;;8.40;91.40;;;;;;4966966;28;19969;-60
2024/02/12 05:36:14;;;;;;;;;;;8.40;91.40;;;;;;4966066;28;20358;-58
2024/02/12 05:38:49;;;;;;;;;;;8.40;91.40;;;;;;4964452;28;19942;-60
2024/02/12 05:41:33;;;;;;;;;;;8.50;91.40;;;;;;4968122;28;19934;-59
2024/02/12 05:44:06;;;;;;;;;;;8.50;91.30;;;;;;4967364;28;19926;-59
2024/02/12 05:46:39;;;;;;;;;;;8.50;91.30;;;;;;4963973;28;20042;-61
2024/02/12 05:49:09;;;;;;;;;;;8.50;91.40;;;;;;4969563;28;19926;-59
2024/02/12 05:51:43;;;;;;;;;;;8.50;91.40;;;;;;4969300;28;20046;-59
2024/02/12 05:54:16;;;;;;;;;;;8.40;91.30;;;;;;4968111;28;20077;-59
2024/02/12 05:56:49;;;;;;;;;;;8.40;91.40;;;;;;4969036;28;20033;-60
2024/02/12 05:59:22;;;;;;;;;;;8.50;91.40;;;;;;4968768;28;19936;-60
2024/02/12 06:01:55;;;;;;;;;;;8.40;91.40;;;;;;4968761;28;20336;-59
2024/02/12 06:04:29;;;;;;;;;;;8.40;91.40;;;;;;4968558;28;20243;-60
2024/02/12 06:07:04;;;;;;;;;;;8.50;91.40;;;;;;4968134;28;20447;-59
2024/02/12 06:09:37;;;;;;;;;;;8.50;91.40;;;;;;4964631;28;19930;-60
2024/02/12 06:12:11;;;;;;;;;;;8.50;91.40;;;;;;4968971;28;19926;-60
2024/02/12 06:14:44;;;;;;;;;;;8.50;91.40;;;;;;4969176;28;19942;-59
2024/02/12 06:17:18;;;;;;;;;;;8.40;91.40;;;;;;4970128;28;19933;-59
2024/02/12 06:19:52;;;;;;;;;;;8.50;91.40;;;;;;4969207;28;19933;-59
2024/02/12 06:22:26;;;;;;;;;;;8.40;91.40;;;;;;4967705;28;20374;-59
2024/02/12 06:25:05;;;;;;;;;;;8.40;91.30;;;;;;4968628;28;20057;-59
2024/02/12 06:27:39;;;;;;;;;;;8.40;91.40;;;;;;4968642;28;19930;-60
2024/02/12 06:30:13;;;;;;;;;;;8.40;91.50;;;;;;4969242;28;20386;-60
2024/02/12 06:32:54;;;;;;;;;;;8.40;91.40;;;;;;4967168;28;19937;-58
2024/02/12 06:35:29;;;;;;;;;;;8.40;91.40;;;;;;4970432;28;19932;-60
2024/02/12 06:38:03;;;;;;;;;;;8.40;91.40;;;;;;4965823;28;19934;-59
2024/02/12 06:40:40;;;;;;;;;;;8.40;91.40;;;;;;4969545;28;19977;-60
2024/02/12 06:43:14;;;;;;;;;;;8.40;91.50;;;;;;4970141;28;19930;-60
2024/02/12 06:45:48;;;;;;;;;;;8.40;91.40;;;;;;4967264;28;19926;-58
2024/02/12 06:48:22;;;;;;;;;;;8.40;91.50;;;;;;4968331;28;20547;-60
2024/02/12 06:51:00;;;;;;;;;;;8.40;91.50;;;;;;4969192;28;19968;-59
2024/02/12 06:53:33;;;;;;;;;;;8.40;91.50;;;;;;4969032;28;20382;-60
2024/02/12 06:56:07;;;;;;;;;;;8.40;91.50;;;;;;4969561;28;19926;-59
2024/02/12 06:58:42;;;;;;;;;;;8.40;91.50;;;;;;4968204;28;19926;-61
2024/02/12 07:01:15;;;;;;;;;;;8.40;91.50;;;;;;4967328;28;19962;-59
2024/02/12 07:03:51;;;;;;;;;;;8.40;91.50;;;;;;4966310;28;19933;-59
2024/02/12 07:06:26;;;;;;;;;;;8.40;91.50;;;;;;4969630;28;20053;-59
2024/02/12 07:09:08;;;;;;;;;;;8.40;91.50;;;;;;4969309;28;19961;-59
2024/02/12 07:11:41;;;;;;;;;;;8.40;91.60;;;;;;4968150;28;19930;-59
2024/02/12 07:14:14;;;;;;;;;;;8.40;91.60;;;;;;4967369;28;19964;-59
2024/02/12 07:16:48;;;;;;;;;;;8.40;91.60;;;;;;4968138;28;19926;-59
2024/02/12 07:19:22;;;;;;;;;;;8.40;91.70;;;;;;4978032;28;19989;-59
2024/02/12 07:25:15;;;;;;;;;;;8.40;91.60;;;;;;4968551;28;20017;-61
2024/02/12 07:27:50;;;;;;;;;;;8.40;91.60;;;;;;4969716;28;19934;-60
2024/02/12 07:30:23;;;;;;;;;;;8.40;91.50;;;;;;4965788;28;19972;-61
2024/02/12 07:32:56;;;;;;;;;;;8.40;91.50;;;;;;4967848;28;19934;-59
2024/02/12 07:35:29;;;;;;;;;;;8.40;91.60;;;;;;4968113;28;19957;-60
2024/02/12 07:38:12;;;;;;;;;;;8.40;91.60;;;;;;4967946;28;19930;-60
2024/02/12 07:40:53;;;;;;;;;;;8.40;91.60;;;;;;4963306;28;19934;-59
2024/02/12 07:43:28;;;;;;;;;;;8.40;91.50;;;;;;4963006;28;19988;-62
2024/02/12 07:46:01;;;;;;;;;;;8.40;91.60;;;;;;4966470;28;20296;-63
2024/02/12 07:48:34;;;;;;;;;;;8.40;91.70;;;;;;4968234;28;19949;-64
2024/02/12 07:51:22;;;;;;;;;;;8.40;91.70;;;;;;4965645;28;20566;-63
2024/02/12 07:54:01;;;;;;;;;;;8.40;91.70;;;;;;4969765;28;19930;-61
2024/02/12 07:56:36;;;;;;;;;;;8.40;91.70;;;;;;4964596;28;19937;-61
2024/02/12 07:59:10;;;;;;;;;;;8.40;91.70;;;;;;4965678;28;19985;-62
2024/02/12 08:01:44;;;;;;;;;;;8.40;91.60;;;;;;4966650;28;20404;-61
2024/02/12 08:04:19;;;;;;;;;;;8.40;91.50;;;;;;4967656;28;19930;-61
2024/02/12 08:06:56;;;;;;;;;;;8.40;91.60;;;;;;4967088;28;19969;-62
2024/02/12 08:09:30;;;;;;;;;;;8.40;91.60;;;;;;4969446;28;19930;-63
2024/02/12 08:12:08;;;;;;;;;;;8.50;91.60;;;;;;4968645;28;19941;-61
2024/02/12 08:14:41;;;;;;;;;;;8.50;91.60;;;;;;4966655;28;20016;-62
2024/02/12 08:17:14;;;;;;;;;;;8.40;91.60;;;;;;4965987;28;19940;-61
2024/02/12 08:19:47;;;;;;;;;;;8.40;91.60;;;;;;4969203;28;19952;-62
2024/02/12 08:22:21;;;;;;;;;;;8.50;91.60;;;;;;4968317;28;20056;-62
2024/02/12 08:24:55;;;;;;;;;;;8.50;91.50;;;;;;4965430;28;20025;-63
2024/02/12 08:27:36;;;;;;;;;;;8.60;91.40;;;;;;4966387;28;20020;-62
2024/02/12 08:30:11;;;;;;;;;;;8.60;91.40;;;;;;4967316;28;20064;-63
2024/02/12 08:32:44;;;;;;;;;;;8.60;91.40;;;;;;4967105;28;19930;-61
2024/02/12 08:35:18;;;;;;;;;;;8.70;91.30;;;;;;4968249;28;19933;-61
2024/02/12 08:38:25;;;;;;;;;;;8.70;91.40;;;;;;4969253;28;19930;-63
2024/02/12 08:41:00;;;;;;;;;;;8.70;91.30;;;;;;4957506;28;20306;-63
2024/02/12 08:43:35;;;;;;;;;;;8.70;91.20;;;;;;4966006;28;19930;-62
2024/02/12 08:46:10;;;;;;;;;;;8.70;91.20;;;;;;4965889;28;20476;-63
2024/02/12 08:48:44;;;;;;;;;;;8.70;91.10;;;;;;4968672;28;20016;-61
2024/02/12 08:51:11;;;;;;;;;;;8.70;91.10;;;;;;4962444;28;20016;-62
2024/02/12 08:53:44;;;;;;;;;;;8.70;91.00;;;;;;4966515;28;19937;-60
2024/02/12 08:56:17;;;;;;;;;;;8.80;91.00;;;;;;4966949;28;20440;-60
2024/02/12 08:58:51;;;;;;;;;;;8.80;91.00;;;;;;4964344;28;20396;-61
2024/02/12 09:01:25;;;;;;;;;;;8.80;91.00;;;;;;4967057;28;20412;-61
2024/02/12 09:03:52;;;;;;;;;;;8.80;90.90;;;;;;4965788;28;19930;-60
2024/02/12 09:06:25;;;;;;;;;;;8.90;90.90;;;;;;4967172;28;19930;-60
2024/02/12 09:08:58;;;;;;;;;;;8.90;90.90;;;;;;4967615;28;20013;-60
2024/02/12 09:11:32;;;;;;;;;;;8.90;90.70;;;;;;4967518;28;19930;-62
2024/02/12 09:14:07;;;;;;;;;;;8.90;90.60;;;;;;4963903;28;20586;-61
2024/02/12 09:16:40;;;;;;;;;;;8.90;90.70;;;;;;4968158;28;19941;-61
2024/02/12 09:19:13;;;;;;;;;;;8.90;90.60;;;;;;4967582;28;20018;-60
2024/02/12 09:21:41;;;;;;;;;;;8.90;90.40;;;;;;4965713;28;19953;-61
2024/02/12 09:24:16;;;;;;;;;;;8.90;90.40;;;;;;4970152;28;19926;-60
2024/02/12 09:27:29;;;;;;;;;;;8.90;90.40;;;;;;4964057;28;19940;-62
2024/02/12 09:30:30;;;;;;;;;;;8.80;90.50;;;;;;4968347;28;20031;-61
2024/02/12 09:33:03;;;;;;;;;;;8.90;90.50;;;;;;4966229;28;19953;-61
2024/02/12 09:35:37;;;;;;;;;;;8.90;90.50;;;;;;4972008;28;19937;-62
2024/02/12 09:38:11;;;;;;;;;;;8.90;90.50;;;;;;4972697;28;19926;-62
2024/02/12 09:40:44;;;;;;;;;;;8.90;90.50;;;;;;4970507;28;19941;-62
2024/02/12 09:43:20;;;;;;;;;;;8.90;90.50;;;;;;4970759;28;19932;-63
2024/02/12 09:45:56;;;;;;;;;;;8.90;90.50;;;;;;4972044;28;19930;-61
2024/02/12 09:48:29;;;;;;;;;;;8.90;90.40;;;;;;4971488;28;21064;-61
2024/02/12 09:51:05;;;;;;;;;;;8.90;90.40;;;;;;4971718;28;19930;-61
2024/02/12 09:53:38;;;;;;;;;;;9.00;90.40;;;;;;4968946;28;19961;-61
2024/02/12 09:56:38;;;;;;;;;;;9.00;90.30;;;;;;4969182;28;20491;-61
2024/02/12 09:59:13;;;;;;;;;;;9.00;90.20;;;;;;4968813;28;19997;-62
2024/02/12 10:01:47;;;;;;;;;;;9.00;90.30;;;;;;4973161;28;19930;-61
2024/02/12 10:04:21;;;;;;;;;;;9.10;90.20;;;;;;4971591;28;20194;-63
2024/02/12 10:06:54;;;;;;;;;;;9.00;90.20;;;;;;4971936;28;19933;-60
2024/02/12 10:09:28;;;;;;;;;;;9.10;90.30;;;;;;4967500;28;19926;-61
2024/02/12 10:12:06;;;;;;;;;;;9.10;90.10;;;;;;4971624;28;19953;-62
2024/02/12 10:14:47;;;;;;;;;;;9.10;90.10;;;;;;4968860;28;19953;-62
2024/02/12 10:17:21;;;;;;;;;;;9.10;90.00;;;;;;4970984;28;19957;-63
2024/02/12 10:19:55;;;;;;;;;;;9.20;90.00;;;;;;4971583;28;20349;-61
2024/02/12 10:22:28;;;;;;;;;;;9.10;89.90;;;;;;4971484;28;20404;-62
2024/02/12 10:25:02;;;;;;;;;;;9.20;89.80;;;;;;4971301;28;19927;-61
2024/02/12 10:27:36;;;;;;;;;;;9.20;89.80;;;;;;4971684;28;19968;-61
2024/02/12 10:30:10;;;;;;;;;;;9.20;89.90;;;;;;4968771;28;19930;-60
2024/02/12 10:32:47;;;;;;;;;;;9.20;89.80;;;;;;4970781;28;19930;-64
2024/02/12 10:35:22;;;;;;;;;;;9.30;89.80;;;;;;4971604;28;19930;-62
2024/02/12 10:37:57;;;;;;;;;;;9.30;89.80;;;;;;4970541;28;19925;-61
2024/02/12 10:40:33;;;;;;;;;;;9.40;89.80;;;;;;4970259;28;20337;-62
2024/02/12 10:43:07;;;;;;;;;;;9.40;89.60;;;;;;4966603;28;20436;-61
2024/02/12 10:45:41;;;;;;;;;;;9.50;89.60;;;;;;4972151;28;19961;-60
2024/02/12 10:48:16;;;;;;;;;;;9.60;89.40;;;;;;4969933;28;20008;-61
2024/02/12 10:50:53;;;;;;;;;;;9.60;89.30;;;;;;4971537;28;19929;-62
2024/02/12 10:53:20;;;;;;;;;;;9.60;89.10;;;;;;4970829;28;19930;-61
2024/02/12 10:55:54;;;;;;;;;;;9.60;88.90;;;;;;4970414;28;20575;-60
2024/02/12 10:58:28;;;;;;;;;;;9.60;88.90;;;;;;4971204;28;19934;-61
2024/02/12 11:01:01;;;;;;;;;;;9.70;88.80;;;;;;4967580;28;19930;-60
2024/02/12 11:03:39;;;;;;;;;;;9.70;88.70;;;;;;4971351;28;20020;-60
2024/02/12 11:06:18;;;;;;;;;;;9.80;88.60;;;;;;4970318;28;19937;-63
2024/02/12 11:08:52;;;;;;;;;;;9.70;88.40;;;;;;4966232;28;19930;-61
2024/02/12 11:11:29;;;;;;;;;;;9.70;88.60;;;;;;4971056;28;19977;-61
2024/02/12 11:14:03;;;;;;;;;;;9.70;88.50;;;;;;4965182;28;19933;-61
2024/02/12 11:16:39;;;;;;;;;;;9.70;88.30;;;;;;4966680;28;19930;-61
2024/02/12 11:19:16;;;;;;;;;;;9.70;88.10;;;;;;4970947;28;19934;-60
2024/02/12 11:21:54;;;;;;;;;;;9.70;87.90;;;;;;4970541;28;19926;-61
2024/02/12 11:24:36;;;;;;;;;;;9.70;87.70;;;;;;4969138;28;20399;-69
2024/02/12 11:27:09;;;;;;;;;;;9.70;87.70;;;;;;4969677;28;20282;-69
2024/02/12 11:29:44;;;;;;;;;;;9.80;87.60;;;;;;4971074;28;20009;-68
2024/02/12 11:32:21;;;;;;;;;;;9.90;87.50;;;;;;4967300;28;19933;-68
2024/02/12 11:34:55;;;;;;;;;;;9.90;87.40;;;;;;4969890;28;19989;-67
2024/02/12 11:37:29;;;;;;;;;;;9.90;87.30;;;;;;4969315;28;20400;-68
2024/02/12 11:40:03;;;;;;;;;;;9.90;87.10;;;;;;4968694;28;19930;-68
2024/02/12 11:42:36;;;;;;;;;;;9.90;87.00;;;;;;4969119;28;19930;-68
2024/02/12 11:45:09;;;;;;;;;;;10.00;86.70;;;;;;4969627;28;19958;-67
2024/02/12 11:47:42;;;;;;;;;;;10.00;86.80;;;;;;4963768;28;20480;-67
2024/02/12 11:50:20;;;;;;;;;;;10.00;86.80;;;;;;4963176;28;19981;-67
2024/02/12 11:52:54;;;;;;;;;;;10.10;86.70;;;;;;4968701;28;19936;-70
2024/02/12 11:55:27;;;;;;;;;;;10.00;86.70;;;;;;4968841;28;19977;-67
2024/02/12 11:58:00;;;;;;;;;;;10.00;86.60;;;;;;4968334;28;20412;-67
2024/02/12 12:00:34;;;;;;;;;;;10.00;86.50;;;;;;4968553;28;19926;-67
2024/02/12 12:03:08;;;;;;;;;;;10.00;86.40;;;;;;4969761;28;20385;-67
2024/02/12 12:05:43;;;;;;;;;;;10.00;86.40;;;;;;4970382;28;20025;-69
2024/02/12 12:08:16;;;;;;;;;;;10.00;86.40;;;;;;4968930;28;19933;-67
2024/02/12 12:10:43;;;;;;;;;;;10.00;86.10;;;;;;4963205;28;19954;-67
2024/02/12 12:13:20;;;;;;;;;;;9.90;86.20;;;;;;4969863;28;19930;-67
2024/02/12 12:15:54;;;;;;;;;;;10.00;86.20;;;;;;4968719;28;19976;-68
2024/02/12 12:18:27;;;;;;;;;;;10.00;86.20;;;;;;4966988;28;20014;-69
2024/02/12 12:21:04;;;;;;;;;;;10.00;86.00;;;;;;4967679;28;19926;-68
2024/02/12 12:23:37;;;;;;;;;;;9.90;86.00;;;;;;4967550;28;20385;-68
2024/02/12 12:26:10;;;;;;;;;;;9.90;86.00;;;;;;4967654;28;19930;-69
2024/02/12 12:28:44;;;;;;;;;;;9.90;86.00;;;;;;4969554;28;19926;-67
2024/02/12 12:31:17;;;;;;;;;;;9.90;86.10;;;;;;4965942;28;20408;-67
2024/02/12 12:33:44;;;;;;;;;;;9.90;86.30;;;;;;4969105;28;19927;-61
2024/02/12 12:36:20;;;;;;;;;;;9.90;86.40;;;;;;4968164;28;19926;-59
2024/02/12 12:38:53;;;;;;;;;;;10.00;86.60;;;;;;4968877;28;19937;-59
2024/02/12 12:41:26;;;;;;;;;;;10.00;86.40;;;;;;4969441;28;19933;-60
2024/02/12 12:43:59;;;;;;;;;;;10.00;86.60;;;;;;4968270;28;20390;-60
2024/02/12 12:46:32;;;;;;;;;;;10.10;86.60;;;;;;4968680;28;19932;-60
2024/02/12 12:49:07;;;;;;;;;;;10.10;86.50;;;;;;4965299;28;19930;-60
2024/02/12 12:51:41;;;;;;;;;;;10.10;86.50;;;;;;4968995;28;20305;-59
2024/02/12 12:54:17;;;;;;;;;;;10.10;86.40;;;;;;4968672;28;19930;-60
2024/02/12 12:56:51;;;;;;;;;;;10.10;86.30;;;;;;4969603;28;19926;-59
2024/02/12 12:59:24;;;;;;;;;;;10.10;86.30;;;;;;4968610;28;19934;-60
2024/02/12 13:01:57;;;;;;;;;;;10.00;86.10;;;;;;4973271;28;20005;-60
2024/02/12 13:04:30;;;;;;;;;;;10.00;86.00;;;;;;4972713;28;19926;-60
2024/02/12 13:07:06;;;;;;;;;;;9.90;86.20;;;;;;4971694;28;20370;-59
2024/02/12 13:09:39;;;;;;;;;;;9.90;86.30;;;;;;4972595;28;20378;-61
2024/02/12 13:12:06;;;;;;;;;;;9.80;86.40;;;;;;4972587;28;19933;-59
2024/02/12 13:14:42;;;;;;;;;;;9.80;86.20;;;;;;4972065;28;19957;-59
2024/02/12 13:17:18;;;;;;;;;;;9.80;86.40;;;;;;4971295;28;19965;-59
2024/02/12 13:20:01;;;;;;;;;;;9.80;86.40;;;;;;4971974;28;20043;-61
2024/02/12 13:22:37;;;;;;;;;;;9.70;86.50;;;;;;4973117;28;19933;-59
2024/02/12 13:25:12;;;;;;;;;;;9.70;86.30;;;;;;4970672;28;19941;-59
2024/02/12 13:27:46;;;;;;;;;;;9.80;86.50;;;;;;4972471;28;19930;-61
2024/02/12 13:30:19;;;;;;;;;;;9.80;86.20;;;;;;4971955;28;19930;-59
2024/02/12 13:32:52;;;;;;;;;;;9.80;86.10;;;;;;4972543;28;19930;-59
2024/02/12 13:35:25;;;;;;;;;;;9.90;86.20;;;;;;4973408;28;20289;-59
2024/02/12 13:37:59;;;;;;;;;;;9.90;85.90;;;;;;4986699;28;19945;-59
2024/02/12 13:40:33;;;;;;;;;;;9.90;85.80;;;;;;4969800;28;20357;-59
2024/02/12 13:43:06;;;;;;;;;;;9.90;85.70;;;;;;4970058;28;20634;-60
2024/02/12 13:45:39;;;;;;;;;;;10.00;85.50;;;;;;4973794;28;20060;-59
2024/02/12 13:48:12;;;;;;;;;;;10.00;85.30;;;;;;4972978;28;20303;-61
2024/02/12 13:50:45;;;;;;;;;;;10.00;85.40;;;;;;4972665;28;19927;-62
2024/02/12 13:53:19;;;;;;;;;;;10.00;85.60;;;;;;4968309;28;19930;-60
2024/02/12 13:55:54;;;;;;;;;;;10.10;85.20;;;;;;4970079;28;19926;-59
2024/02/12 13:58:28;;;;;;;;;;;10.10;85.00;;;;;;4972069;28;19962;-59
2024/02/12 14:01:01;;;;;;;;;;;10.10;85.20;;;;;;4971947;28;19939;-59
2024/02/12 14:03:34;;;;;;;;;;;10.00;84.90;;;;;;4972186;28;19930;-58
2024/02/12 14:06:07;;;;;;;;;;;9.90;85.20;;;;;;4971983;28;19957;-59
2024/02/12 14:08:41;;;;;;;;;;;9.90;84.90;;;;;;4972195;28;19926;-59
2024/02/12 14:11:15;;;;;;;;;;;9.90;85.20;;;;;;4972335;28;19934;-59
2024/02/12 14:13:51;;;;;;;;;;;9.80;85.20;;;;;;4969565;28;20408;-59
2024/02/12 14:16:24;;;;;;;;;;;9.80;85.20;;;;;;4972470;28;19927;-59
2024/02/12 14:18:57;;;;;;;;;;;9.80;85.40;;;;;;4970728;28;20348;-60
2024/02/12 14:21:30;;;;;;;;;;;9.70;85.30;;;;;;4969672;28;20377;-60
2024/02/12 14:24:05;;;;;;;;;;;9.70;85.20;;;;;;4971318;28;19987;-59
2024/02/12 14:26:35;;;;;;;;;;;9.70;85.30;;;;;;4972136;28;19930;-59
2024/02/12 14:29:08;;;;;;;;;;;9.80;85.40;;;;;;4969479;28;20026;-59
2024/02/12 14:31:41;;;;;;;;;;;9.80;85.30;;;;;;4971298;28;20014;-59
2024/02/12 14:34:14;;;;;;;;;;;9.80;85.30;;;;;;4971026;28;19973;-60
2024/02/12 14:36:47;;;;;;;;;;;9.80;85.40;;;;;;4970075;28;20388;-60
2024/02/12 14:39:22;;;;;;;;;;;9.80;85.40;;;;;;4970995;28;19926;-59
2024/02/12 14:41:55;;;;;;;;;;;9.70;85.40;;;;;;4972413;28;19930;-58
2024/02/12 14:44:28;;;;;;;;;;;9.80;85.50;;;;;;4970987;28;20440;-58
2024/02/12 14:47:02;;;;;;;;;;;9.70;85.30;;;;;;4967795;28;19930;-59
2024/02/12 14:49:35;;;;;;;;;;;9.70;85.50;;;;;;4971110;28;20275;-59
2024/02/12 14:52:08;;;;;;;;;;;9.70;85.40;;;;;;4971069;28;19930;-59
2024/02/12 14:54:42;;;;;;;;;;;9.70;85.70;;;;;;4971168;28;20008;-59
2024/02/12 14:57:15;;;;;;;;;;;9.70;85.40;;;;;;4971237;28;19926;-59
2024/02/12 14:59:49;;;;;;;;;;;9.60;85.50;;;;;;4971106;28;19926;-60
2024/02/12 15:02:23;;;;;;;;;;;9.70;85.40;;;;;;4970079;28;19926;-60
2024/02/12 15:04:56;;;;;;;;;;;9.70;85.40;;;;;;4966985;28;19930;-60
2024/02/12 15:07:29;;;;;;;;;;;9.70;85.60;;;;;;4970649;28;20278;-59
2024/02/12 15:10:04;;;;;;;;;;;9.70;85.30;;;;;;4971419;28;19945;-60
2024/02/12 15:12:39;;;;;;;;;;;9.70;85.50;;;;;;4967543;28;19930;-59
2024/02/12 15:15:13;;;;;;;;;;;9.70;85.50;;;;;;4969589;28;20017;-60
2024/02/12 15:17:50;;;;;;;;;;;9.70;85.40;;;;;;4970702;28;19940;-60
2024/02/12 15:20:25;;;;;;;;;;;9.70;85.40;;;;;;4965246;28;19930;-59
2024/02/12 15:22:53;;;;;;;;;;;9.70;85.40;;;;;;4969180;28;20003;-60
2024/02/12 15:25:29;;;;;;;;;;;9.60;85.40;;;;;;4970457;28;19973;-58
2024/02/12 15:28:04;;;;;;;;;;;9.60;85.30;;;;;;4971033;28;19930;-60
2024/02/12 15:30:37;;;;;;;;;;;9.60;85.40;;;;;;4970816;28;20338;-60